Shovel Lake, Minnesota
Current Conditions -  °F | °C
As of 3:35 PM on Thursday 23 Oct 2014 (Local Time) from KGPZ Reporting Station
Clear Clear  
Wind Chill: 64°   Ceiling: Unl
Heat Index: 64°   Visibility: 10mi
Dew Point: 43°   Wind: 8mph
Humidity: 45%   Direction: 200°SSW
Pressure: 29.9"   Gusts: NA
Location:  46.9367°N, 93.6827°W
Report Text: KGPZ 232035Z AUTO 20007KT 10SM CLR 18/06 A2990 RMK AO1
Loading
Personal Weather Stations






























Interactive Weather Map
Tropical Storm Tracking
New forecast layout! Learn more

10-Day Weather Forecast

Advertisements
Track Severe Weather on mobile